tititudorancea.com
Station Historical Data
Daily Summary for November 13, 2018 Units:  Metric    English   Both
« Previous Day
Next Day »
Daily Weekly Monthly Yearly Custom
  High: Low: Average:
Temperature: -17.8 °C 0 °C 17.5 °C
Dew Point: -17.8 °C 1.3 °C 9.1 °C
Humidity: Humidity % 0 % 61 %
Wind Speed: 0 km/h 0 km/h 7.4 km/h
Wind Gust: 0 km/h - -
Wind:- - SSW
Pressure: 0 hPa 1007 hPa -
Precipitation: 0.51 mm    
Historical Graphs
 
 
Ararat weather Find more about Weather in Ararat, AU


 



 


Tabular Data for November 13, 2018
Time Temperature Dew Point Pressure Wind Wind Speed Wind Gust Humidity Rainfall Rate (Hourly)
-17.8 °C -17.8 °C 0 hPa Calm     Humidity % 0 mm
00:04 20.8 °C 1.6 °C 1010 hPa NNE 3.7 km/h 2.3 km/h 28 % 0 mm
00:09 21.1 °C 1.3 °C 1010 hPa NNE 5.6 km/h 4.8 km/h 27 % 0 mm
00:14 21.2 °C 1.9 °C 1010 hPa NNE 4.8 km/h 3.4 km/h 28 % 0 mm
00:19 20.9 °C 1.7 °C 1010 hPa NNE 5.6 km/h 2.6 km/h 28 % 0 mm
00:24 20.7 °C 1.6 °C 1010 hPa NNE 5.6 km/h 3.1 km/h 28 % 0 mm
00:29 20.5 °C 2.3 °C 1010 hPa NNE 5.6 km/h 3.4 km/h 30 % 0 mm
00:34 20.2 °C 2.5 °C 1010 hPa NNE 3.2 km/h 1.1 km/h 31 % 0 mm
00:39 19.9 °C 1.3 °C 1009.7 hPa NNE 3.7 km/h 1.9 km/h 29 % 0 mm
00:44 19.9 °C 2.2 °C 1009.7 hPa NNE 3.7 km/h 3.2 km/h 31 % 0 mm
00:49 19.7 °C 1.6 °C 1009.7 hPa NNE 3.7 km/h 2.6 km/h 30 % 0 mm
00:54 19.6 °C 2.4 °C 1009.7 hPa NNE 3.7 km/h 3.2 km/h 32 % 0 mm
00:59 19.4 °C 2.3 °C 1009.7 hPa NNE 1.6 km/h 0.2 km/h 32 % 0 mm
01:04 19.2 °C 2.5 °C 1009.7 hPa NNE 5.6 km/h 4.3 km/h 33 % 0 mm
01:09 19.1 °C 2.4 °C 1009.4 hPa NNE 3.7 km/h 0.2 km/h 33 % 0 mm
01:14 19 °C 2.8 °C 1009.4 hPa NNE 1.6 km/h 0.3 km/h 34 % 0 mm
01:19 18.9 °C 3.1 °C 1009.4 hPa NNE 3.7 km/h 1.6 km/h 35 % 0 mm
01:24 18.8 °C 3 °C 1009 hPa NNE 3.7 km/h 1.1 km/h 35 % 0 mm
01:29 18.8 °C 2.2 °C 1009 hPa NNE 3.7 km/h 1.9 km/h 33 % 0 mm
01:34 18.9 °C 2.7 °C 1009 hPa Calm     34 % 0 mm
01:39 18.7 °C 2.5 °C 1009 hPa NNE 3.7 km/h 2.1 km/h 34 % 0 mm
01:44 18.6 °C 3.2 °C 1009 hPa NNE 3.7 km/h 1.4 km/h 36 % 0 mm
01:49 18.6 °C 3.2 °C 1009 hPa NNE 5.6 km/h 4.2 km/h 36 % 0 mm
01:54 18.5 °C 3.1 °C 1009 hPa NNE 3.7 km/h 0.6 km/h 36 % 0 mm
01:59 18.3 °C 2.6 °C 1008.7 hPa NNE 5.6 km/h 3.4 km/h 35 % 0 mm
02:04 18.6 °C 3.2 °C 1008.7 hPa NNE 5.6 km/h 3.4 km/h 36 % 0 mm
02:09 18.7 °C 2.5 °C 1008.7 hPa NNE 3.7 km/h 1.9 km/h 34 % 0 mm
02:14 18.9 °C 2.3 °C 1008.7 hPa NNE 1.9 km/h 0.6 km/h 33 % 0 mm
02:19 19.1 °C 2.4 °C 1008.4 hPa NNE 3.7 km/h 2.4 km/h 33 % 0 mm
02:24 19.2 °C 2.6 °C 1008.7 hPa NNE 6.4 km/h 4.8 km/h 33 % 0 mm
02:29 19.6 °C 2.4 °C 1008.7 hPa NNE 6.4 km/h 5.3 km/h 32 % 0 mm
02:34 20.1 °C 2.4 °C 1008.7 hPa NNE 5.6 km/h 4.2 km/h 31 % 0 mm
02:39 20.4 °C 2.2 °C 1008.7 hPa NNE 5.6 km/h 3.9 km/h 30 % 0 mm
02:44 20.8 °C 2.1 °C 1008.7 hPa NNE 5.6 km/h 0.5 km/h 29 % 0 mm
02:49 20.9 °C 2.2 °C 1008.7 hPa NNE 1.9 km/h   29 % 0 mm
02:54 20.8 °C 2.6 °C 1008.7 hPa NNE 5.6 km/h 3.2 km/h 30 % 0 mm
02:59 20.6 °C 2.9 °C 1008.7 hPa NNE 5.6 km/h 3.2 km/h 31 % 0 mm
03:04 20.5 °C 2.8 °C 1008.7 hPa NNE 5.6 km/h 3.5 km/h 31 % 0 mm
03:09 20.2 °C 3.8 °C 1008.7 hPa NNE 5.6 km/h 3.5 km/h 34 % 0 mm
03:14 20 °C 2.8 °C 1008.7 hPa NNE 8 km/h 5.6 km/h 32 % 0 mm
03:19 20.1 °C 3.3 °C 1008.7 hPa NNE 9.7 km/h 7.6 km/h 33 % 0 mm
03:24 20.4 °C 2.7 °C 1009 hPa NW 14.8 km/h 11.4 km/h 31 % 0 mm
03:29 20.5 °C 2.3 °C 1009 hPa WNW 14.8 km/h 9.5 km/h 30 % 0 mm
03:34 20.7 °C 2 °C 1009 hPa WNW 9.3 km/h 5.3 km/h 29 % 0 mm
03:39 20.7 °C 2 °C 1009 hPa WNW 7.4 km/h 7.7 km/h 29 % 0 mm
03:44 20.7 °C 2 °C 1008.7 hPa WNW 13 km/h 5.8 km/h 29 % 0 mm
03:49 20.6 °C 2.9 °C 1008.7 hPa WNW 7.4 km/h 4.7 km/h 31 % 0 mm
03:54 20.4 °C 4.1 °C 1008.7 hPa WNW 8 km/h 7.1 km/h 34 % 0 mm
03:59 20.3 °C 4.3 °C 1009 hPa North 6.4 km/h 4.3 km/h 35 % 0 mm
04:04 20.2 °C 4.6 °C 1009 hPa WNW 5.6 km/h 3.2 km/h 36 % 0 mm
04:09 19.9 °C 5.6 °C 1009 hPa WNW 9.3 km/h 5.6 km/h 39 % 0 mm
04:14 19.2 °C 7.3 °C 1008.7 hPa WNW 7.4 km/h 3.9 km/h 46 % 0 mm
04:19 18.7 °C 8.1 °C 1009 hPa North 6.4 km/h 4.7 km/h 50 % 0 mm
04:24 18.2 °C 8.4 °C 1008.7 hPa WNW 5.6 km/h 3.5 km/h 53 % 0 mm
04:29 17.8 °C 8.3 °C 1008.7 hPa WNW 7.4 km/h 4.8 km/h 54 % 0 mm
04:34 17.3 °C 8.4 °C 1008.4 hPa NNW 11.1 km/h 8.5 km/h 56 % 0 mm
04:39 16.8 °C 8.7 °C 1008 hPa North 8 km/h 6.3 km/h 59 % 0 mm
04:44 16.6 °C 8.8 °C 1008 hPa North 5.6 km/h 2.6 km/h 60 % 0 mm
04:49 16.4 °C 9.1 °C 1008 hPa North 3.7 km/h 2.9 km/h 62 % 0 mm
04:54 16.3 °C 9.2 °C 1008 hPa North 9.3 km/h 7.1 km/h 63 % 0 mm
04:59 16.3 °C 9.3 °C 1008 hPa North 3.7 km/h 2.7 km/h 63 % 0 mm
05:04 16.3 °C 9.3 °C 1008 hPa North 5.6 km/h 2.6 km/h 63 % 0 mm
05:09 16.2 °C 9.4 °C 1008 hPa North 5.6 km/h 3.4 km/h 64 % 0 mm
05:14 16.2 °C 9.2 °C 1008 hPa Calm     63 % 0 mm
05:19 16.2 °C 9.2 °C 1008 hPa North 4.8 km/h 1.9 km/h 63 % 0 mm
05:24 16.2 °C 9.4 °C 1008 hPa North 3.7 km/h 1.1 km/h 64 % 0 mm
05:29 16.2 °C 9.4 °C 1008 hPa North 4.8 km/h 1.9 km/h 64 % 0 mm
05:34 16.2 °C 9.4 °C 1008 hPa Calm     64 % 0 mm
05:39 16.2 °C 9.6 °C 1008 hPa Calm     65 % 0 mm
05:44 16.2 °C 9.6 °C 1008 hPa North 5.6 km/h 0.6 km/h 65 % 0 mm
05:49 16.2 °C 9.4 °C 1008 hPa Calm     64 % 0 mm
05:54 16.2 °C 9.6 °C 1008 hPa Calm     65 % 0 mm
05:59 16.2 °C 9.6 °C 1007.7 hPa North 1.6 km/h 0.3 km/h 65 % 0 mm
06:04 16.1 °C 9.9 °C 1007.7 hPa Calm     67 % 0 mm
06:09 15.9 °C 9.8 °C 1007.7 hPa North 3.7 km/h 0.2 km/h 67 % 0 mm
06:13 15.9 °C 9.8 °C 1008 hPa Calm     67 % 0 mm
06:19 15.7 °C 9.8 °C 1008 hPa North 3.7 km/h 2.4 km/h 68 % 0 mm
06:24 15.7 °C 9.6 °C 1008 hPa North 5.6 km/h 3.2 km/h 67 % 0 mm
06:29 15.9 °C 9.1 °C 1007.7 hPa North 3.7 km/h 0.3 km/h 64 % 0 mm
06:34 16 °C 9.7 °C 1008 hPa Calm     66 % 0 mm
06:39 16 °C 8.9 °C 1008 hPa North 8 km/h 8.7 km/h 63 % 0 mm
06:44 16.4 °C 8.4 °C 1008 hPa North 8 km/h 7.2 km/h 59 % 0 mm
06:49 16.9 °C 8.6 °C 1008 hPa North 5.6 km/h 2.3 km/h 58 % 0 mm
06:54 17.2 °C 9.3 °C 1008.4 hPa NNW 11.1 km/h 9 km/h 60 % 0 mm
06:59 17.3 °C 9.4 °C 1008 hPa NNW 3.7 km/h 1.8 km/h 60 % 0 mm
07:04 17.4 °C 9.3 °C 1008 hPa North 5.6 km/h 1.1 km/h 59 % 0 mm
07:09 17.5 °C 9.4 °C 1008 hPa NNW 4.8 km/h 4.2 km/h 59 % 0 mm
07:14 17.5 °C 9.2 °C 1008 hPa North 5.6 km/h 2.3 km/h 58 % 0 mm
07:19 17.6 °C 8.4 °C 1008.4 hPa NNW 5.6 km/h 3.5 km/h 55 % 0 mm
07:24 17.6 °C 8.7 °C 1008 hPa NNW 3.2 km/h 0.5 km/h 56 % 0 mm
07:30 0 °C 37.7 °C 1008 hPa Calm     0 % 0 mm
07:54 17.9 °C 8.5 °C 1008 hPa NNW 3.2 km/h 1 km/h 54 % 0 mm
07:59 18.1 °C 8.7 °C 1008 hPa North 4.8 km/h 3.4 km/h 54 % 0 mm
08:04 18.4 °C 8.6 °C 1007.7 hPa North 5.6 km/h 3.2 km/h 53 % 0 mm
08:09 18.7 °C 8.6 °C 1007.7 hPa Calm     52 % 0 mm
08:14 18.9 °C 8.9 °C 1007.7 hPa Calm     52 % 0 mm
08:19 19.4 °C 8.4 °C 1007.7 hPa NNW 5.6 km/h 3.7 km/h 49 % 0 mm
08:22 19.6 °C 8.3 °C 1007.7 hPa NNW 5.6 km/h 4.3 km/h 48 % 0 mm
18:24 25.2 °C 8.2 °C 1007 hPa West 20.9 km/h 14.6 km/h 34 % 0 mm
18:29 24.7 °C 8.7 °C 1007 hPa West 29.6 km/h 25.3 km/h 36 % 0 mm
18:34 24.2 °C 9.4 °C 1007 hPa West 20.4 km/h 18.2 km/h 39 % 0 mm
18:39 23.8 °C 9 °C 1007 hPa West 24.1 km/h 21.4 km/h 39 % 0 mm
18:44 23.7 °C 9.3 °C 1007.3 hPa West 18.5 km/h 9.3 km/h 40 % 0 mm
18:49 23.7 °C 10.7 °C 1007.3 hPa SSW 17.7 km/h 9.5 km/h 44 % 0 mm
18:54 21.9 °C 14.1 °C 1007.7 hPa SW 18.5 km/h 16.3 km/h 61 % 0 mm
18:59 20.7 °C 14.4 °C 1008 hPa SSW 27.8 km/h 17.2 km/h 67 % 0 mm
19:04 19.8 °C 14.6 °C 1008 hPa SSW 18.5 km/h 13.8 km/h 72 % 0 mm
19:09 19.2 °C 14.7 °C 1008 hPa SSW 20.4 km/h 16.1 km/h 75 % 0 mm
19:14 18.7 °C 15 °C 1008.4 hPa SSW 22.2 km/h 10.3 km/h 79 % 0 mm
19:19 18.4 °C 15.1 °C 1008.4 hPa North 16.7 km/h 11.1 km/h 81 % 0 mm
19:24 18 °C 14.9 °C 1008.4 hPa SSW 24.1 km/h 12.7 km/h 82 % 0 mm
19:29 17.7 °C 15 °C 1008.4 hPa South 14.8 km/h 8.4 km/h 84 % 0 mm
19:34 17.5 °C 14.8 °C 1008.4 hPa South 13 km/h 9 km/h 84 % 0 mm
19:39 17.4 °C 14.8 °C 1008.7 hPa South 5.6 km/h 0.2 km/h 85 % 0 mm
19:44 17.3 °C 14.9 °C 1008.7 hPa South 7.4 km/h 3.4 km/h 86 % 0 mm
19:49 17.1 °C 14.7 °C 1009 hPa South 7.4 km/h 3.5 km/h 86 % 0 mm
19:54 17 °C 14.8 °C 1009 hPa South 6.4 km/h 4.7 km/h 87 % 0.25 mm
19:59 16.9 °C 14.8 °C 1009 hPa South 3.7 km/h 0.2 km/h 87 % 0.25 mm
20:04 16.9 °C 14.7 °C 1009 hPa North 11.1 km/h 6.9 km/h 87 % 0.25 mm
20:09 16.7 °C 14.7 °C 1009 hPa South 3.7 km/h 1.9 km/h 88 % 0.25 mm
20:14 16.6 °C 14.6 °C 1009 hPa North 4.8 km/h 1.6 km/h 88 % 0.25 mm
20:19 16.4 °C 14.4 °C 1008.7 hPa South 7.4 km/h 3.9 km/h 88 % 0.25 mm
20:24 16.3 °C 14.5 °C 1008.7 hPa South 9.3 km/h 5.6 km/h 89 % 0.51 mm
20:29 16.3 °C 14.4 °C 1008.7 hPa South 13 km/h 5.8 km/h 89 % 0.51 mm
20:34 16.2 °C 14.3 °C 1008.4 hPa North 14.8 km/h 8.9 km/h 89 % 0.51 mm
20:39 16.1 °C 14.4 °C 1008.7 hPa South 14.8 km/h 6.9 km/h 90 % 0.51 mm
20:44 15.9 °C 14.3 °C 1009 hPa South 9.7 km/h 9.5 km/h 90 % 0.51 mm
20:49 15.9 °C 14.3 °C 1009 hPa South 9.3 km/h 3.4 km/h 90 % 0.51 mm
20:54 15.9 °C 14.4 °C 1009 hPa South 7.4 km/h 0.6 km/h 91 % 0.25 mm
20:59 15.8 °C 14.4 °C 1009 hPa South 5.6 km/h 1 km/h 91 % 0.25 mm
21:04 15.8 °C 14.4 °C 1009 hPa Calm     91 % 0.25 mm
21:09 15.8 °C 14.4 °C 1009.4 hPa South 7.4 km/h 1.1 km/h 91 % 0.25 mm
21:14 15.8 °C 14.3 °C 1009.4 hPa South 7.4 km/h 5.8 km/h 91 % 0.25 mm
21:19 15.8 °C 14.3 °C 1009.4 hPa North 7.4 km/h 2.9 km/h 91 % 0.25 mm
21:24 15.8 °C 14.3 °C 1009.7 hPa South 8 km/h 5.3 km/h 91 % 0 mm
21:29 15.7 °C 14.3 °C 1009.7 hPa South 7.4 km/h 5.6 km/h 91 % 0 mm
21:34 15.7 °C 14.4 °C 1009.7 hPa South 3.7 km/h 0.3 km/h 92 % 0 mm
21:39 15.7 °C 14.4 °C 1009.7 hPa South 9.7 km/h 6 km/h 92 % 0 mm
21:44 15.6 °C 14.3 °C 1010 hPa South 8 km/h 5.3 km/h 92 % 0 mm
21:49 15.6 °C 14.3 °C 1009.7 hPa South 11.1 km/h 5.1 km/h 92 % 0 mm
21:54 15.6 °C 14.3 °C 1010 hPa South 9.3 km/h 4.5 km/h 92 % 0 mm
21:59 15.5 °C 14.2 °C 1010 hPa South 11.3 km/h 8.2 km/h 92 % 0 mm
22:04 15.4 °C 14.2 °C 1010 hPa South 11.3 km/h 6.8 km/h 92 % 0 mm
22:09 15.4 °C 14.2 °C 1010 hPa South 13 km/h 7.4 km/h 92 % 0 mm
22:14 15.4 °C 14.1 °C 1010 hPa South 9.3 km/h 5.5 km/h 92 % 0 mm
22:19 15.4 °C 14.1 °C 1010 hPa South 9.3 km/h 5.6 km/h 92 % 0 mm
22:24 15.3 °C 14.1 °C 1010 hPa South 7.4 km/h 2.9 km/h 92 % 0 mm
22:29 15.3 °C 14 °C 1010 hPa South 5.6 km/h 4.8 km/h 92 % 0 mm
22:34 15.3 °C 14 °C 1010 hPa South 9.3 km/h 4.5 km/h 92 % 0 mm
22:39 15.3 °C 14 °C 1010 hPa South 6.4 km/h 4.7 km/h 92 % 0 mm
22:44 15.3 °C 14 °C 1010.4 hPa South 5.6 km/h 2.3 km/h 92 % 0 mm
22:49 15.3 °C 14.2 °C 1010.4 hPa South 3.7 km/h 2.1 km/h 93 % 0 mm
22:54 15.3 °C 14.2 °C 1010.7 hPa South 5.6 km/h 1.4 km/h 93 % 0 mm
22:59 15.3 °C 14 °C 1010.7 hPa North 5.6 km/h 2.1 km/h 92 % 0 mm
23:04 15.2 °C 13.9 °C 1010.4 hPa North 7.4 km/h 7.1 km/h 92 % 0 mm
23:09 15.2 °C 13.9 °C 1010.7 hPa South 11.1 km/h 8 km/h 92 % 0 mm
23:14 15.2 °C 13.9 °C 1010.7 hPa South 11.1 km/h 6.9 km/h 92 % 0 mm
23:19 15.1 °C 13.8 °C 1010.7 hPa South 13 km/h 4.2 km/h 92 % 0 mm
23:24 15.1 °C 14 °C 1010.7 hPa South 12.9 km/h 9.3 km/h 93 % 0 mm
23:29 15.1 °C 14 °C 1010.4 hPa South 14.8 km/h 8.7 km/h 93 % 0 mm
23:34 15.1 °C 13.9 °C 1010.4 hPa South 11.1 km/h 6.4 km/h 93 % 0 mm
23:39 15.1 °C 13.9 °C 1010.7 hPa South 9.7 km/h 8 km/h 93 % 0 mm
23:44 15 °C 13.9 °C 1010.7 hPa South 3.7 km/h 1 km/h 93 % 0 mm
23:49 15 °C 13.9 °C 1010.7 hPa South 8 km/h 3.4 km/h 93 % 0 mm
23:54 14.9 °C 13.6 °C 1010.7 hPa South 7.4 km/h 4.2 km/h 92 % 0 mm
23:59 14.8 °C 13.7 °C 1010.7 hPa South 14.8 km/h 10.1 km/h 93 % 0 mm
Ararat Weather
Compliments of Weather Underground - 1.5 mb
Click here to send mail.


ABOUT

Live weather data from Ararat, Victoria, Australia, 3377
Data uploaded from Cumulus every 5 minutes to Weather Underground.
This site then downloads the raw data for formatting and display.
Metric and imperial data can be displayed. Graphs and historical data available.
Includes Sun and Moon times and rain image live from BOM.

Check out Ararat Weather on Facebook, Twitter and Google +

Help support ongoing costs by checking out the ads





Follow @AraratWeather